Time;durP1;ratioP1;P1;durP2;ratioP2;P2;SDS_P1;SDS_P2;PMS_P1;PMS_P2;Temp;Humidity;BMP_temperature;BMP_pressure;BME280_temperature;BME280_humidity;BME280_pressure;Samples;Min_cycle;Max_cycle;Signal;HPM_P1;HPM_P2
2024/01/15 00:00:35;;;;;;;8.03;7.40;;;15.50;65.00;;;;;;5058024;28;43830;-69
2024/01/15 00:03:04;;;;;;;8.37;7.77;;;15.50;65.00;;;;;;5064854;28;43535;-70
2024/01/15 00:05:32;;;;;;;8.50;7.80;;;15.50;65.10;;;;;;5073725;27;43380;-70
2024/01/15 00:08:00;;;;;;;8.63;7.90;;;15.50;65.10;;;;;;5056827;28;43407;-71
2024/01/15 00:10:28;;;;;;;7.93;7.37;;;15.40;65.00;;;;;;5059893;27;43600;-70
2024/01/15 00:12:57;;;;;;;7.73;7.13;;;15.50;65.10;;;;;;5064983;27;43503;-70
2024/01/15 00:15:28;;;;;;;7.97;7.33;;;15.40;65.10;;;;;;5076263;27;43368;-69
2024/01/15 00:17:56;;;;;;;7.73;7.13;;;15.40;65.10;;;;;;5057952;28;43459;-69
2024/01/15 00:20:24;;;;;;;8.13;7.43;;;15.40;65.10;;;;;;5071903;27;43612;-69
2024/01/15 00:22:56;;;;;;;8.03;7.47;;;15.40;65.10;;;;;;5073058;27;43901;-70
2024/01/15 00:25:24;;;;;;;8.17;7.47;;;15.40;65.10;;;;;;5063121;28;43406;-70
2024/01/15 00:27:52;;;;;;;8.33;7.63;;;15.40;65.10;;;;;;5075333;28;43383;-70
2024/01/15 00:30:22;;;;;;;8.67;7.97;;;15.40;65.20;;;;;;5076939;27;43834;-70
2024/01/15 00:32:50;;;;;;;8.33;7.63;;;15.40;65.30;;;;;;5070780;28;43400;-70
2024/01/15 00:35:18;;;;;;;7.90;7.30;;;15.40;65.40;;;;;;5065191;28;43499;-70
2024/01/15 00:37:46;;;;;;;7.83;7.23;;;15.50;65.20;;;;;;5063530;28;43327;-71
2024/01/15 00:40:14;;;;;;;7.47;6.97;;;15.60;64.80;;;;;;5069019;27;43954;-71
2024/01/15 00:42:42;;;;;;;7.70;7.10;;;15.60;64.50;;;;;;5066299;28;43710;-71
2024/01/15 00:45:11;;;;;;;7.60;7.00;;;15.60;64.50;;;;;;5069043;27;43443;-71
2024/01/15 00:47:41;;;;;;;7.97;7.37;;;15.60;64.60;;;;;;5064977;28;43403;-70
2024/01/15 00:50:09;;;;;;;7.43;6.83;;;15.60;64.80;;;;;;5063096;28;43975;-70
2024/01/15 00:52:37;;;;;;;8.43;7.63;;;15.50;64.80;;;;;;5065966;27;43387;-70
2024/01/15 00:55:06;;;;;;;8.03;7.40;;;15.50;64.80;;;;;;5065412;28;43892;-70
2024/01/15 00:57:34;;;;;;;7.70;7.10;;;15.50;64.80;;;;;;5062462;28;43490;-70
2024/01/15 01:00:03;;;;;;;7.47;6.87;;;15.50;64.80;;;;;;5063717;27;43850;-70
2024/01/15 01:02:33;;;;;;;8.83;8.07;;;15.50;64.90;;;;;;5068680;27;43396;-70
2024/01/15 01:05:04;;;;;;;7.97;7.37;;;15.50;65.00;;;;;;5066088;27;43417;-70
2024/01/15 01:07:32;;;;;;;7.97;7.27;;;15.50;65.10;;;;;;5067666;28;43628;-70
2024/01/15 01:10:00;;;;;;;7.87;7.27;;;15.40;65.10;;;;;;5062037;28;43593;-70
2024/01/15 01:12:30;;;;;;;8.10;7.50;;;15.40;65.10;;;;;;5060888;28;44835;-69
2024/01/15 01:14:58;;;;;;;7.63;7.03;;;15.40;65.00;;;;;;5066596;28;43400;-69
2024/01/15 01:17:27;;;;;;;8.00;7.40;;;15.40;65.10;;;;;;5068205;28;43397;-70
2024/01/15 01:19:55;;;;;;;7.47;6.87;;;15.40;65.10;;;;;;5040216;28;43842;-74
2024/01/15 01:22:24;;;;;;;7.57;6.97;;;15.40;65.10;;;;;;5032395;28;43316;-71
2024/01/15 01:24:52;;;;;;;8.10;7.40;;;15.40;65.20;;;;;;5036946;28;43445;-72
2024/01/15 01:27:20;;;;;;;7.87;7.27;;;15.40;65.40;;;;;;5031324;28;44108;-72
2024/01/15 01:29:48;;;;;;;7.30;6.80;;;15.40;65.40;;;;;;5043003;28;43679;-72
2024/01/15 01:32:16;;;;;;;7.30;6.73;;;15.50;65.30;;;;;;5037318;28;43356;-72
2024/01/15 01:34:45;;;;;;;7.60;7.00;;;15.50;64.80;;;;;;5042352;28;43494;-73
2024/01/15 01:37:13;;;;;;;7.17;6.67;;;15.60;64.70;;;;;;5046787;28;43569;-76
2024/01/15 01:39:43;;;;;;;7.97;7.27;;;15.50;64.70;;;;;;5038387;28;43683;-71
2024/01/15 01:42:11;;;;;;;7.80;7.20;;;15.50;64.80;;;;;;5042249;28;43504;-72
2024/01/15 01:44:39;;;;;;;8.20;7.60;;;15.50;64.80;;;;;;5044428;28;44068;-72
2024/01/15 01:47:07;;;;;;;7.63;7.03;;;15.50;64.90;;;;;;5037142;28;43458;-72
2024/01/15 01:49:36;;;;;;;7.43;6.93;;;15.50;64.90;;;;;;5030778;28;43873;-72
2024/01/15 01:52:06;;;;;;;7.10;6.60;;;15.50;64.90;;;;;;5040213;28;43450;-72
2024/01/15 01:54:34;;;;;;;7.77;7.17;;;15.40;65.00;;;;;;5041318;28;43462;-72
2024/01/15 01:57:04;;;;;;;7.70;7.10;;;15.50;65.00;;;;;;5031722;28;44130;-72
2024/01/15 01:59:33;;;;;;;7.50;6.90;;;15.40;65.00;;;;;;5039013;28;46024;-72
2024/01/15 02:02:02;;;;;;;7.70;7.10;;;15.40;65.80;;;;;;5037438;28;43391;-72
2024/01/15 02:04:30;;;;;;;7.20;6.70;;;15.40;65.10;;;;;;5042426;28;43452;-72
2024/01/15 02:06:58;;;;;;;7.10;6.60;;;15.40;65.10;;;;;;5035401;28;43467;-72
2024/01/15 02:09:26;;;;;;;7.33;6.83;;;15.40;65.10;;;;;;5042752;28;46874;-72
2024/01/15 02:11:54;;;;;;;7.80;7.20;;;15.40;65.10;;;;;;5047696;28;43471;-72
2024/01/15 02:14:24;;;;;;;8.20;7.50;;;15.40;65.10;;;;;;5043159;28;43384;-71
2024/01/15 02:16:52;;;;;;;7.10;6.60;;;15.40;65.10;;;;;;5038141;28;43468;-72
2024/01/15 02:19:20;;;;;;;7.20;6.67;;;15.40;65.20;;;;;;5034406;28;43908;-72
2024/01/15 02:21:48;;;;;;;7.47;6.97;;;15.40;65.30;;;;;;5039802;28;44321;-71
2024/01/15 02:24:17;;;;;;;6.53;6.17;;;15.40;65.40;;;;;;5041463;28;43942;-72
2024/01/15 02:26:45;;;;;;;7.07;6.47;;;15.50;65.20;;;;;;5037195;28;43506;-72
2024/01/15 02:29:13;;;;;;;7.73;7.13;;;15.50;64.70;;;;;;5038446;28;44811;-72
2024/01/15 02:31:42;;;;;;;7.40;6.90;;;15.50;65.30;;;;;;5043351;28;43863;-72
2024/01/15 02:34:10;;;;;;;6.83;6.40;;;15.50;64.60;;;;;;5037795;28;43369;-72
2024/01/15 02:36:38;;;;;;;6.97;6.47;;;15.50;64.70;;;;;;5043967;28;43368;-74
2024/01/15 02:39:06;;;;;;;8.13;7.53;;;15.50;64.80;;;;;;5034411;28;43932;-72
2024/01/15 02:41:35;;;;;;;6.60;6.20;;;15.50;65.00;;;;;;5045207;28;43372;-72
2024/01/15 02:44:03;;;;;;;7.50;6.90;;;15.50;65.00;;;;;;5040286;28;43499;-72
2024/01/15 02:46:31;;;;;;;7.33;6.77;;;15.40;64.90;;;;;;5043910;28;43436;-72
2024/01/15 02:48:59;;;;;;;6.60;6.20;;;15.40;64.90;;;;;;5045292;28;43599;-72
2024/01/15 02:51:28;;;;;;;7.70;7.10;;;15.40;65.00;;;;;;5044047;28;43981;-72
2024/01/15 02:53:56;;;;;;;6.93;6.43;;;15.40;65.10;;;;;;5030263;28;43442;-72
2024/01/15 02:56:24;;;;;;;7.00;6.50;;;15.40;65.10;;;;;;5037920;28;43474;-72
2024/01/15 02:58:53;;;;;;;6.87;6.37;;;15.40;65.30;;;;;;5035181;28;43610;-72
2024/01/15 03:01:21;;;;;;;7.33;6.73;;;15.40;65.20;;;;;;5028883;28;45051;-72
2024/01/15 03:03:50;;;;;;;7.50;6.90;;;15.40;65.20;;;;;;5040579;28;43480;-72
2024/01/15 03:06:18;;;;;;;6.40;6.00;;;15.40;65.20;;;;;;5035228;28;43800;-72
2024/01/15 03:08:46;;;;;;;7.40;6.90;;;15.30;65.80;;;;;;5045580;28;47178;-72
2024/01/15 03:11:14;;;;;;;7.77;7.17;;;15.30;65.20;;;;;;5038208;28;43385;-72
2024/01/15 03:13:42;;;;;;;6.57;6.17;;;15.30;65.20;;;;;;5038891;28;44012;-72
2024/01/15 03:16:11;;;;;;;6.80;6.30;;;15.30;65.30;;;;;;5038317;28;43447;-72
2024/01/15 03:18:39;;;;;;;6.33;5.93;;;15.30;65.30;;;;;;5031983;28;43980;-72
2024/01/15 03:21:07;;;;;;;6.97;6.47;;;15.30;65.30;;;;;;5035370;28;43401;-72
2024/01/15 03:23:36;;;;;;;7.03;6.53;;;15.30;66.10;;;;;;5039598;28;43351;-72
2024/01/15 03:26:04;;;;;;;7.40;6.90;;;15.30;65.40;;;;;;5036387;28;43587;-71
2024/01/15 03:28:32;;;;;;;7.10;6.60;;;15.30;65.40;;;;;;5030575;28;43595;-72
2024/01/15 03:31:00;;;;;;;8.07;7.40;;;15.30;65.50;;;;;;5044063;28;43426;-72
2024/01/15 03:33:29;;;;;;;6.73;6.33;;;15.20;65.40;;;;;;5042623;28;43458;-72
2024/01/15 03:35:58;;;;;;;6.83;6.33;;;15.20;65.60;;;;;;5037533;28;43364;-72
2024/01/15 03:38:30;;;;;;;6.87;6.37;;;15.30;65.80;;;;;;5043749;28;43774;-70
2024/01/15 03:40:58;;;;;;;6.60;6.10;;;15.40;65.50;;;;;;5052371;28;43470;-71
2024/01/15 03:43:28;;;;;;;7.33;6.73;;;15.40;65.00;;;;;;5068250;28;43539;-71
2024/01/15 03:45:56;;;;;;;6.60;6.20;;;15.50;64.70;;;;;;5052337;28;43387;-70
2024/01/15 03:48:24;;;;;;;6.87;6.47;;;15.50;64.70;;;;;;5065354;28;45845;-70
2024/01/15 03:50:54;;;;;;;7.10;6.50;;;15.50;64.80;;;;;;5055773;28;43445;-70
2024/01/15 03:53:22;;;;;;;7.40;6.80;;;15.50;64.90;;;;;;5060717;28;43463;-71
2024/01/15 03:55:50;;;;;;;6.60;6.13;;;15.40;64.90;;;;;;5077052;28;43385;-70
2024/01/15 03:58:18;;;;;;;6.83;6.33;;;15.40;64.90;;;;;;5073289;28;43877;-71
2024/01/15 04:00:46;;;;;;;7.53;6.93;;;15.40;64.90;;;;;;5072183;28;43422;-70
2024/01/15 04:03:14;;;;;;;6.87;6.33;;;15.40;64.90;;;;;;5057575;28;43363;-70
2024/01/15 04:05:42;;;;;;;6.70;6.27;;;15.40;65.00;;;;;;5058704;28;43341;-70
2024/01/15 04:08:12;;;;;;;6.73;6.23;;;15.40;65.00;;;;;;5064914;28;45666;-71
2024/01/15 04:10:40;;;;;;;6.83;6.43;;;15.40;65.10;;;;;;5067737;28;43487;-71
2024/01/15 04:13:08;;;;;;;6.60;6.20;;;15.40;65.10;;;;;;5062458;28;43565;-71
2024/01/15 04:15:36;;;;;;;6.63;6.13;;;15.40;65.10;;;;;;5067406;28;44413;-71
2024/01/15 04:18:06;;;;;;;7.20;6.70;;;15.40;65.10;;;;;;5065588;28;43724;-71
2024/01/15 04:20:34;;;;;;;6.80;6.30;;;15.40;65.10;;;;;;5062091;28;44837;-70
2024/01/15 04:23:02;;;;;;;6.87;6.37;;;15.40;65.10;;;;;;5067917;28;43434;-70
2024/01/15 04:25:31;;;;;;;6.60;6.20;;;15.40;65.00;;;;;;5055327;28;43452;-70
2024/01/15 04:27:59;;;;;;;6.90;6.40;;;15.40;65.10;;;;;;5064744;28;43572;-71
2024/01/15 04:30:27;;;;;;;6.53;6.13;;;15.30;65.00;;;;;;5066998;28;43438;-71
2024/01/15 04:32:56;;;;;;;6.27;5.87;;;15.40;65.00;;;;;;5070853;28;43506;-71
2024/01/15 04:35:24;;;;;;;6.83;6.37;;;15.40;65.00;;;;;;5060456;28;43485;-70
2024/01/15 04:37:52;;;;;;;6.40;6.00;;;15.40;65.80;;;;;;5071256;28;43785;-71
2024/01/15 04:40:20;;;;;;;6.93;6.43;;;15.30;65.00;;;;;;5057353;28;43411;-71
2024/01/15 04:42:49;;;;;;;6.77;6.27;;;15.40;65.10;;;;;;5079525;28;43377;-71
2024/01/15 04:45:18;;;;;;;6.83;6.33;;;15.30;65.00;;;;;;5068587;28;43658;-70
2024/01/15 04:47:46;;;;;;;6.37;5.97;;;15.30;65.10;;;;;;5066659;28;43584;-71
2024/01/15 04:50:15;;;;;;;6.07;5.77;;;15.30;65.30;;;;;;5063606;28;43487;-70
2024/01/15 04:52:43;;;;;;;6.63;6.23;;;15.30;65.30;;;;;;5062301;28;44016;-70
2024/01/15 04:55:11;;;;;;;6.43;5.93;;;15.50;65.90;;;;;;5056117;28;43386;-70
2024/01/15 04:57:39;;;;;;;7.33;6.63;;;15.50;64.70;;;;;;5065157;28;43936;-70
2024/01/15 05:00:09;;;;;;;6.47;6.00;;;15.50;64.40;;;;;;5065338;28;43407;-71
2024/01/15 05:02:38;;;;;;;6.77;6.27;;;15.50;64.40;;;;;;5053621;28;43405;-70
2024/01/15 05:05:06;;;;;;;7.43;6.73;;;15.50;64.60;;;;;;5056014;28;43372;-71
2024/01/15 05:07:34;;;;;;;7.20;6.50;;;15.50;64.70;;;;;;5057609;28;43584;-70
2024/01/15 05:10:03;;;;;;;7.07;6.47;;;15.40;64.80;;;;;;5062726;28;43391;-71
2024/01/15 05:12:31;;;;;;;6.70;6.20;;;15.40;64.80;;;;;;5051341;28;43426;-71
2024/01/15 05:14:59;;;;;;;7.40;6.80;;;15.40;64.80;;;;;;5054356;28;43432;-70
2024/01/15 05:17:29;;;;;;;7.50;6.80;;;15.40;64.80;;;;;;5052122;28;43611;-71
2024/01/15 05:19:57;;;;;;;7.33;6.73;;;15.40;64.90;;;;;;5056838;28;43512;-71
2024/01/15 05:22:25;;;;;;;8.67;7.23;;;15.40;65.00;;;;;;5059911;28;43417;-70
2024/01/15 05:24:53;;;;;;;7.17;6.47;;;15.40;65.10;;;;;;5056551;28;43410;-71
2024/01/15 05:27:21;;;;;;;8.00;7.20;;;15.30;65.00;;;;;;5053512;28;43795;-70
2024/01/15 05:29:49;;;;;;;8.00;7.23;;;15.30;64.90;;;;;;5061877;28;45196;-71
2024/01/15 05:32:17;;;;;;;7.83;6.87;;;15.30;65.00;;;;;;5062467;28;43408;-70
2024/01/15 05:34:47;;;;;;;8.53;7.00;;;15.30;64.90;;;;;;5056839;28;43507;-71
2024/01/15 05:37:15;;;;;;;7.43;6.73;;;15.40;65.10;;;;;;5052510;28;44804;-71
2024/01/15 05:39:43;;;;;;;8.10;7.33;;;15.30;65.00;;;;;;5062945;28;43447;-70
2024/01/15 05:42:11;;;;;;;8.23;7.43;;;15.30;64.90;;;;;;5066077;28;43427;-70
2024/01/15 05:44:39;;;;;;;7.50;6.77;;;15.30;64.90;;;;;;5066063;28;43405;-71
2024/01/15 05:47:08;;;;;;;8.30;7.43;;;15.30;65.20;;;;;;5050358;28;43922;-71
2024/01/15 05:49:36;;;;;;;8.00;6.50;;;15.40;65.30;;;;;;5048222;28;43389;-70
2024/01/15 05:52:06;;;;;;;9.33;7.60;;;15.40;64.80;;;;;;5056135;28;43469;-71
2024/01/15 05:54:34;;;;;;;8.00;7.20;;;15.50;64.80;;;;;;5050650;28;43408;-70
2024/01/15 05:57:02;;;;;;;8.33;7.53;;;15.40;64.80;;;;;;5055288;28;43595;-70
2024/01/15 05:59:32;;;;;;;8.37;7.57;;;15.40;64.90;;;;;;5059189;28;43448;-70
2024/01/15 06:02:00;;;;;;;8.37;7.60;;;15.40;65.00;;;;;;5057150;28;43979;-71
2024/01/15 06:04:28;;;;;;;7.87;7.07;;;15.40;65.10;;;;;;5060615;28;43371;-70
2024/01/15 06:06:56;;;;;;;7.87;7.10;;;15.30;65.10;;;;;;5051710;28;43625;-70
2024/01/15 06:09:26;;;;;;;7.40;6.70;;;15.30;65.10;;;;;;5059455;28;43459;-70
2024/01/15 06:11:54;;;;;;;7.53;6.83;;;15.30;65.10;;;;;;5057800;28;43338;-70
2024/01/15 06:14:22;;;;;;;7.80;7.00;;;15.30;65.10;;;;;;5052944;28;43328;-70
2024/01/15 06:16:50;;;;;;;7.47;6.73;;;15.30;65.20;;;;;;5058415;28;43846;-71
2024/01/15 06:19:18;;;;;;;7.83;7.03;;;15.30;65.20;;;;;;5067818;28;43457;-71
2024/01/15 06:21:46;;;;;;;8.33;7.40;;;15.30;65.30;;;;;;5067388;28;43402;-70
2024/01/15 06:24:15;;;;;;;7.97;6.77;;;15.30;65.30;;;;;;5059200;28;43432;-69
2024/01/15 06:26:44;;;;;;;8.60;7.43;;;15.30;65.30;;;;;;5053022;28;45931;-70
2024/01/15 06:29:12;;;;;;;7.83;7.03;;;15.30;65.30;;;;;;5065496;28;43515;-70
2024/01/15 06:31:40;;;;;;;8.23;7.40;;;15.30;65.90;;;;;;5059618;28;43468;-70
2024/01/15 06:34:09;;;;;;;7.97;7.17;;;15.30;65.30;;;;;;5055306;28;43407;-70
2024/01/15 06:36:37;;;;;;;7.67;6.97;;;15.30;65.30;;;;;;5053596;28;43608;-70
2024/01/15 06:39:05;;;;;;;7.57;6.97;;;15.30;65.20;;;;;;5058214;28;43431;-69
2024/01/15 06:41:34;;;;;;;7.67;6.97;;;15.30;65.20;;;;;;5061560;28;43376;-70
2024/01/15 06:44:03;;;;;;;7.13;6.53;;;15.30;65.30;;;;;;5055187;28;43399;-70
2024/01/15 06:46:31;;;;;;;7.43;6.73;;;15.40;65.20;;;;;;5045425;28;45677;-70
2024/01/15 06:48:59;;;;;;;7.70;7.00;;;15.50;64.80;;;;;;5066350;28;43459;-70
2024/01/15 06:51:27;;;;;;;7.77;7.17;;;15.60;64.40;;;;;;5056550;28;43385;-71
2024/01/15 06:53:55;;;;;;;7.47;6.77;;;15.50;64.30;;;;;;5061445;28;43408;-69
2024/01/15 06:56:24;;;;;;;7.57;6.87;;;15.60;64.50;;;;;;5061550;28;45648;-70
2024/01/15 06:58:52;;;;;;;8.10;7.33;;;15.50;64.40;;;;;;5051054;28;44986;-72
2024/01/15 07:01:21;;;;;;;8.30;7.50;;;15.50;64.60;;;;;;5055309;28;43718;-72
2024/01/15 07:03:49;;;;;;;7.37;6.77;;;15.50;65.20;;;;;;5054178;28;43459;-72
2024/01/15 07:06:17;;;;;;;7.67;6.87;;;15.50;64.60;;;;;;5064599;28;43687;-70
2024/01/15 07:08:46;;;;;;;7.57;6.87;;;15.50;64.60;;;;;;5045796;28;43452;-73
2024/01/15 07:11:14;;;;;;;8.07;7.23;;;15.50;64.80;;;;;;5036147;28;43452;-72
2024/01/15 07:13:42;;;;;;;7.73;7.07;;;15.40;64.80;;;;;;5041669;28;43459;-71
2024/01/15 07:16:10;;;;;;;7.43;6.83;;;15.40;65.10;;;;;;5036235;28;43611;-72
2024/01/15 07:18:40;;;;;;;7.63;6.93;;;15.40;65.00;;;;;;5044479;28;43467;-72
2024/01/15 07:21:08;;;;;;;6.87;6.27;;;15.30;64.90;;;;;;5031444;28;43419;-73
2024/01/15 07:23:36;;;;;;;7.00;6.50;;;15.30;65.00;;;;;;5048854;28;43554;-72
2024/01/15 07:26:05;;;;;;;7.27;6.67;;;15.30;65.00;;;;;;5040132;28;43603;-73
2024/01/15 07:28:33;;;;;;;8.10;7.40;;;15.30;65.00;;;;;;5033680;28;43406;-70
2024/01/15 07:31:02;;;;;;;7.63;7.03;;;15.30;65.10;;;;;;5044463;28;43426;-72
2024/01/15 07:33:31;;;;;;;7.03;6.53;;;15.30;65.10;;;;;;5028567;28;43567;-72
2024/01/15 07:36:02;;;;;;;7.53;6.93;;;15.30;65.10;;;;;;5044220;28;43662;-71
2024/01/15 07:38:30;;;;;;;6.50;5.97;;;15.30;65.20;;;;;;5029828;28;43423;-72
2024/01/15 07:40:59;;;;;;;7.37;6.67;;;15.30;65.20;;;;;;5035874;28;43776;-72
2024/01/15 07:43:27;;;;;;;7.40;6.83;;;15.30;65.20;;;;;;5038936;28;43484;-73
2024/01/15 07:45:56;;;;;;;7.53;6.83;;;15.30;65.20;;;;;;5039812;28;45758;-72
2024/01/15 07:48:24;;;;;;;7.63;7.03;;;15.30;65.20;;;;;;5038049;28;43475;-71
2024/01/15 07:50:52;;;;;;;8.57;7.77;;;15.30;65.20;;;;;;5040359;28;43470;-72
2024/01/15 07:53:21;;;;;;;6.40;6.00;;;15.30;65.20;;;;;;5039489;28;43432;-71
2024/01/15 07:55:49;;;;;;;7.30;6.63;;;15.30;65.30;;;;;;5032001;28;43608;-71
2024/01/15 07:58:17;;;;;;;7.50;6.90;;;15.30;65.40;;;;;;5030234;28;43942;-72
2024/01/15 08:00:45;;;;;;;7.03;6.43;;;15.40;66.00;;;;;;5042902;28;43982;-72
2024/01/15 08:03:15;;;;;;;6.73;6.30;;;15.50;64.90;;;;;;5032390;28;43890;-72
2024/01/15 08:05:43;;;;;;;6.83;6.37;;;15.50;64.50;;;;;;5033499;28;45804;-73
2024/01/15 08:08:11;;;;;;;6.97;6.23;;;15.50;64.40;;;;;;5036029;28;43977;-72
2024/01/15 08:10:40;;;;;;;6.83;6.33;;;15.50;64.50;;;;;;5039101;28;43522;-73
2024/01/15 08:13:09;;;;;;;7.20;6.60;;;15.50;64.70;;;;;;5041545;28;43471;-72
2024/01/15 08:15:37;;;;;;;6.83;6.33;;;15.50;64.80;;;;;;5029278;28;43855;-72
2024/01/15 08:18:05;;;;;;;6.73;6.20;;;15.40;64.70;;;;;;5035764;28;43410;-71
2024/01/15 08:20:34;;;;;;;6.80;6.30;;;15.40;64.70;;;;;;5033899;28;43940;-72
2024/01/15 08:23:02;;;;;;;6.83;6.33;;;15.40;64.80;;;;;;5038777;28;43486;-72
2024/01/15 08:25:30;;;;;;;7.53;6.83;;;15.40;64.90;;;;;;5038824;28;43608;-72
2024/01/15 08:28:00;;;;;;;7.50;7.00;;;15.40;65.00;;;;;;5033799;28;43524;-72
2024/01/15 08:30:28;;;;;;;6.27;5.77;;;15.30;65.00;;;;;;5039200;28;43391;-72
2024/01/15 08:32:56;;;;;;;6.70;6.20;;;15.30;65.10;;;;;;5039923;28;43462;-72
2024/01/15 08:35:35;;;;;;;6.30;5.80;;;15.30;65.10;;;;;;5046934;28;43757;-71
2024/01/15 08:38:03;;;;;;;6.57;6.07;;;15.30;65.30;;;;;;5041027;28;43628;-72
2024/01/15 08:40:31;;;;;;;6.90;6.40;;;15.30;65.10;;;;;;5044533;28;43425;-71
2024/01/15 08:43:01;;;;;;;6.80;6.27;;;15.30;65.20;;;;;;5042261;28;43446;-71
2024/01/15 08:45:30;;;;;;;6.57;6.17;;;15.30;65.20;;;;;;5041990;28;43826;-74
2024/01/15 08:48:00;;;;;;;7.07;6.57;;;15.30;65.30;;;;;;5042550;28;43474;-73
2024/01/15 08:50:28;;;;;;;7.80;7.17;;;15.30;65.30;;;;;;5043505;28;43423;-72
2024/01/15 08:52:56;;;;;;;7.00;6.60;;;15.30;65.40;;;;;;5037199;28;43524;-72
2024/01/15 08:55:24;;;;;;;6.93;6.37;;;15.30;65.50;;;;;;5044366;28;44075;-73
2024/01/15 08:57:52;;;;;;;7.23;6.73;;;15.40;65.30;;;;;;5051687;28;44130;-72
2024/01/15 09:00:21;;;;;;;7.47;6.87;;;15.50;64.90;;;;;;5042094;28;43933;-72
2024/01/15 09:02:49;;;;;;;7.20;6.60;;;15.50;64.80;;;;;;5040049;28;43928;-72
2024/01/15 09:05:18;;;;;;;7.20;6.60;;;15.50;64.80;;;;;;5034220;28;43807;-72
2024/01/15 09:07:46;;;;;;;7.03;6.53;;;15.40;64.80;;;;;;5041353;28;44466;-72
2024/01/15 09:10:14;;;;;;;7.50;6.90;;;15.40;64.80;;;;;;5038257;28;43445;-73
2024/01/15 09:12:42;;;;;;;6.17;5.77;;;15.40;64.90;;;;;;5051780;28;43451;-72
2024/01/15 09:15:10;;;;;;;7.17;6.60;;;15.40;65.00;;;;;;5038000;28;43874;-72
2024/01/15 09:17:40;;;;;;;7.10;6.60;;;15.40;65.00;;;;;;5039122;28;44008;-72
2024/01/15 09:20:09;;;;;;;7.23;6.70;;;15.40;65.10;;;;;;5040637;28;43721;-72
2024/01/15 09:22:40;;;;;;;7.03;6.53;;;15.40;65.10;;;;;;5045687;28;43434;-73
2024/01/15 09:25:09;;;;;;;7.00;6.53;;;15.40;65.10;;;;;;5042142;28;43954;-72
2024/01/15 09:27:37;;;;;;;6.77;6.30;;;15.30;65.10;;;;;;5035696;28;43986;-72
2024/01/15 09:30:08;;;;;;;6.77;6.27;;;15.30;65.30;;;;;;5067769;28;43473;-70
2024/01/15 09:32:36;;;;;;;6.60;6.20;;;15.30;65.20;;;;;;5050100;28;43352;-71
2024/01/15 09:35:07;;;;;;;6.70;6.20;;;15.30;65.20;;;;;;5050152;28;43583;-71
2024/01/15 09:37:35;;;;;;;7.17;6.60;;;15.30;65.20;;;;;;5058660;28;44392;-70
2024/01/15 09:40:15;;;;;;;6.67;6.20;;;15.30;65.20;;;;;;5053309;28;43527;-69
2024/01/15 09:42:44;;;;;;;6.67;6.27;;;15.30;65.30;;;;;;5065189;28;43419;-72
2024/01/15 09:45:13;;;;;;;7.17;6.57;;;15.30;65.30;;;;;;5059959;28;43901;-69
2024/01/15 09:47:41;;;;;;;7.33;6.63;;;15.30;65.40;;;;;;5050049;28;43412;-70
2024/01/15 09:50:15;;;;;;;6.83;6.33;;;15.20;65.40;;;;;;5052374;28;43400;-70
2024/01/15 09:52:44;;;;;;;7.07;6.57;;;15.30;65.40;;;;;;5052089;28;43404;-70
2024/01/15 09:55:13;;;;;;;6.87;6.37;;;15.40;65.80;;;;;;5060161;28;43940;-70
2024/01/15 09:57:41;;;;;;;6.00;5.60;;;15.40;64.90;;;;;;5055411;28;44632;-70
2024/01/15 10:00:10;;;;;;;6.40;6.00;;;15.40;64.90;;;;;;5064250;28;43515;-70
2024/01/15 10:02:39;;;;;;;7.03;6.53;;;15.40;65.00;;;;;;5061494;28;43411;-70
2024/01/15 10:05:09;;;;;;;6.20;5.83;;;15.40;65.10;;;;;;5049260;28;43859;-70
2024/01/15 10:07:39;;;;;;;5.93;5.63;;;15.30;65.20;;;;;;5050529;28;43433;-70
2024/01/15 10:10:08;;;;;;;6.63;6.20;;;15.30;65.10;;;;;;5068336;28;43384;-70
2024/01/15 10:12:37;;;;;;;6.37;5.97;;;15.30;65.20;;;;;;5058776;28;43440;-70
2024/01/15 10:15:06;;;;;;;6.23;5.83;;;15.30;65.20;;;;;;5053012;28;44002;-70
2024/01/15 10:17:34;;;;;;;6.27;5.87;;;15.30;66.00;;;;;;5058563;28;43409;-70
2024/01/15 10:20:04;;;;;;;6.70;6.30;;;15.30;66.00;;;;;;5059984;28;43405;-70
2024/01/15 10:22:32;;;;;;;7.20;6.60;;;15.30;65.40;;;;;;5054922;28;43413;-70
2024/01/15 10:25:02;;;;;;;6.67;6.23;;;15.30;65.40;;;;;;5048954;28;45566;-70
2024/01/15 10:27:30;;;;;;;6.60;6.10;;;15.30;65.50;;;;;;5052935;28;43458;-70
2024/01/15 10:30:00;;;;;;;5.83;5.43;;;15.30;65.30;;;;;;5056428;28;43418;-70
2024/01/15 10:32:28;;;;;;;6.07;5.67;;;15.40;65.10;;;;;;5065307;28;43410;-70
2024/01/15 10:34:56;;;;;;;6.27;5.87;;;15.40;65.10;;;;;;5055325;28;45599;-71
2024/01/15 10:37:27;;;;;;;6.10;5.70;;;15.40;65.10;;;;;;5051527;28;43373;-71
2024/01/15 10:39:57;;;;;;;6.57;6.17;;;15.40;65.10;;;;;;5061496;28;43495;-71
2024/01/15 10:42:29;;;;;;;6.47;6.07;;;15.30;65.10;;;;;;5050005;28;43421;-71
2024/01/15 10:44:57;;;;;;;6.03;5.67;;;15.30;65.20;;;;;;5056104;28;43942;-71
2024/01/15 10:47:25;;;;;;;6.07;5.67;;;15.30;65.10;;;;;;5054454;28;43340;-71
2024/01/15 10:49:53;;;;;;;5.47;5.17;;;15.40;66.00;;;;;;5059933;28;43440;-70
2024/01/15 10:52:22;;;;;;;5.87;5.57;;;15.40;65.30;;;;;;5063475;28;43966;-71
2024/01/15 10:54:50;;;;;;;6.10;5.80;;;15.30;65.20;;;;;;5058703;28;43686;-71
2024/01/15 10:57:19;;;;;;;6.53;6.13;;;15.30;65.20;;;;;;5049707;28;43976;-71
2024/01/15 10:59:48;;;;;;;5.50;5.20;;;15.30;65.20;;;;;;5050961;28;43418;-71
2024/01/15 11:02:16;;;;;;;6.10;5.70;;;15.30;65.30;;;;;;5066224;28;43554;-71
2024/01/15 11:04:44;;;;;;;5.77;5.47;;;15.30;65.40;;;;;;5045943;28;43855;-70
2024/01/15 11:07:12;;;;;;;5.53;5.23;;;15.40;65.50;;;;;;5066725;28;43772;-70
2024/01/15 11:09:41;;;;;;;5.77;5.47;;;15.40;65.00;;;;;;5059750;28;43488;-70
2024/01/15 11:12:10;;;;;;;5.60;5.30;;;15.40;64.80;;;;;;5054785;28;43387;-71
2024/01/15 11:14:40;;;;;;;5.47;5.17;;;15.50;64.90;;;;;;5061694;28;43866;-70
2024/01/15 11:17:09;;;;;;;6.13;5.80;;;15.50;64.90;;;;;;5058813;28;43957;-71
2024/01/15 11:19:39;;;;;;;6.33;5.93;;;15.40;64.90;;;;;;5053407;28;43482;-70
2024/01/15 11:22:09;;;;;;;5.63;5.33;;;15.40;65.10;;;;;;5059132;28;43470;-70
2024/01/15 11:24:38;;;;;;;5.50;5.20;;;15.40;65.10;;;;;;5050621;28;43912;-71
2024/01/15 11:27:06;;;;;;;6.07;5.70;;;15.40;65.10;;;;;;5053967;28;43502;-70
2024/01/15 11:29:35;;;;;;;5.30;5.00;;;15.40;65.10;;;;;;5052503;28;43435;-70
2024/01/15 11:32:07;;;;;;;5.77;5.40;;;15.40;65.20;;;;;;5052928;28;43355;-71
2024/01/15 11:35:02;;;;;;;5.17;4.93;;;15.30;65.20;;;;;;5058069;28;43568;-71
2024/01/15 11:37:58;;;;;;;4.93;4.73;;;15.30;65.30;;;;;;5047631;28;43403;-70
2024/01/15 11:40:42;;;;;;;5.57;5.27;;;15.30;65.30;;;;;;5054206;28;43903;-70
2024/01/15 11:43:12;;;;;;;5.90;5.60;;;15.30;65.30;;;;;;5060051;28;43405;-70
2024/01/15 11:45:41;;;;;;;5.07;4.87;;;15.30;65.30;;;;;;5055615;28;43968;-70
2024/01/15 11:48:13;;;;;;;5.87;5.57;;;15.30;65.30;;;;;;5051807;28;43937;-71
2024/01/15 11:50:43;;;;;;;5.40;5.10;;;15.30;65.30;;;;;;5064555;27;43344;-70
2024/01/15 11:53:18;;;;;;;5.70;5.40;;;15.30;65.30;;;;;;5065082;28;43488;-70
2024/01/15 11:55:48;;;;;;;5.30;5.00;;;15.30;65.40;;;;;;5065953;27;43608;-69
2024/01/15 11:58:17;;;;;;;5.70;5.40;;;15.30;65.30;;;;;;5061050;27;44705;-69
2024/01/15 12:00:45;;;;;;;5.30;5.10;;;15.30;65.30;;;;;;5095436;22;44637;-70
2024/01/15 12:03:14;;;;;;;5.50;5.20;;;15.30;65.30;;;;;;5085536;28;43406;-70
2024/01/15 12:05:42;;;;;;;5.87;5.47;;;15.30;65.20;;;;;;5088020;28;43929;-71
2024/01/15 12:08:11;;;;;;;5.37;5.07;;;15.30;65.30;;;;;;5089963;28;44966;-70
2024/01/15 12:10:41;;;;;;;5.63;5.33;;;15.30;65.30;;;;;;5086472;22;43489;-78
2024/01/15 12:13:12;;;;;;;5.23;4.93;;;15.30;65.30;;;;;;5042862;28;43476;-79
2024/01/15 12:15:41;;;;;;;4.70;4.50;;;15.30;65.30;;;;;;5022826;28;45821;-76
2024/01/15 12:18:09;;;;;;;5.60;5.30;;;15.30;65.50;;;;;;5038650;28;43333;-82
2024/01/15 12:20:38;;;;;;;5.30;5.00;;;15.40;65.50;;;;;;5018007;28;43498;-79
2024/01/15 12:23:06;;;;;;;5.70;5.40;;;15.50;65.20;;;;;;5040140;28;43495;-81
2024/01/15 12:25:37;;;;;;;5.37;5.07;;;15.50;64.60;;;;;;5031156;28;45596;-79
2024/01/15 12:28:07;;;;;;;4.90;4.60;;;15.60;64.60;;;;;;5017399;28;44419;-75
2024/01/15 12:30:35;;;;;;;5.07;4.87;;;15.50;64.60;;;;;;5035703;28;43467;-74
2024/01/15 12:33:04;;;;;;;5.83;5.47;;;15.50;64.70;;;;;;5021734;28;43485;-74
2024/01/15 12:35:33;;;;;;;5.60;5.30;;;15.50;64.90;;;;;;5035853;28;44190;-74
2024/01/15 12:38:02;;;;;;;5.30;5.10;;;15.50;64.90;;;;;;5035528;28;43468;-73
2024/01/15 12:40:32;;;;;;;5.70;5.40;;;15.50;65.00;;;;;;5044908;28;43459;-75
2024/01/15 12:43:00;;;;;;;5.70;5.30;;;15.40;64.90;;;;;;5018434;28;43556;-73
2024/01/15 12:45:30;;;;;;;5.60;5.30;;;15.40;66.00;;;;;;5034330;28;43881;-75
2024/01/15 12:47:59;;;;;;;5.50;5.20;;;15.40;65.10;;;;;;5021416;28;45002;-76
2024/01/15 12:50:28;;;;;;;5.37;5.07;;;15.40;65.90;;;;;;5046623;28;43846;-74
2024/01/15 12:52:56;;;;;;;5.30;5.00;;;15.40;65.30;;;;;;5020249;28;43608;-75
2024/01/15 12:55:24;;;;;;;5.13;4.83;;;15.40;65.30;;;;;;5021753;28;44357;-74